createdAt,value
2018-07-13T00:01:43.172Z,17.10
2018-07-13T00:04:23.656Z,17.10
2018-07-13T00:09:45.703Z,17.10
2018-07-13T00:12:26.539Z,17.10
2018-07-13T00:15:09.467Z,17.00
2018-07-13T00:17:50.294Z,17.00
2018-07-13T00:20:31.039Z,17.00
2018-07-13T00:23:12.248Z,17.00
2018-07-13T00:25:53.987Z,17.10
2018-07-13T00:28:34.816Z,17.20
2018-07-13T00:31:15.591Z,17.20
2018-07-13T00:33:57.553Z,17.20
2018-07-13T00:36:38.328Z,17.10
2018-07-13T00:39:18.739Z,17.10
2018-07-13T00:41:59.996Z,17.10
2018-07-13T00:44:41.087Z,17.20
2018-07-13T00:47:21.691Z,17.30
2018-07-13T00:50:02.875Z,17.30
2018-07-13T00:52:43.265Z,17.30
2018-07-13T00:55:23.773Z,17.20
2018-07-13T00:58:04.814Z,17.20
2018-07-13T01:00:45.296Z,17.30
2018-07-13T01:03:26.047Z,17.30
2018-07-13T01:06:06.533Z,17.40
2018-07-13T01:11:27.074Z,17.40
2018-07-13T01:14:07.932Z,17.40
2018-07-13T01:16:48.736Z,17.40
2018-07-13T01:19:29.309Z,17.40
2018-07-13T01:22:09.882Z,17.30
2018-07-13T01:24:50.956Z,17.30
2018-07-13T01:27:31.425Z,17.30
2018-07-13T01:30:12.076Z,17.30
2018-07-13T01:32:53.057Z,17.30
2018-07-13T01:35:34.064Z,17.20
2018-07-13T01:38:14.992Z,17.20
2018-07-13T01:40:55.852Z,17.20
2018-07-13T01:43:37.031Z,17.10
2018-07-13T01:46:17.944Z,17.10
2018-07-13T01:51:38.641Z,16.90
2018-07-13T01:54:19.057Z,17.00
2018-07-13T01:56:59.749Z,17.00
2018-07-13T01:59:40.146Z,16.90
2018-07-13T02:02:20.640Z,16.90
2018-07-13T02:05:00.980Z,16.80
2018-07-13T02:07:41.450Z,16.70
2018-07-13T02:10:21.836Z,16.70
2018-07-13T02:13:02.343Z,16.70
2018-07-13T02:15:42.821Z,16.70
2018-07-13T02:18:23.417Z,16.70
2018-07-13T02:21:04.462Z,16.70
2018-07-13T02:23:45.345Z,16.70
2018-07-13T02:26:25.931Z,16.50
2018-07-13T02:29:07.399Z,16.50
2018-07-13T02:31:48.065Z,16.40
2018-07-13T02:34:28.525Z,16.40
2018-07-13T02:37:09.806Z,16.40
2018-07-13T02:39:50.690Z,16.30
2018-07-13T02:42:31.549Z,16.40
2018-07-13T02:45:12.504Z,16.30
2018-07-13T02:50:33.813Z,16.40
2018-07-13T02:53:14.351Z,16.40
2018-07-13T02:55:55.449Z,16.40
2018-07-13T02:58:36.217Z,16.30
2018-07-13T03:01:16.761Z,17.70
2018-07-13T03:03:57.476Z,16.30
2018-07-13T03:06:38.679Z,16.30
2018-07-13T03:09:19.570Z,16.30
2018-07-13T03:12:00.369Z,16.30
2018-07-13T03:14:40.780Z,16.20
2018-07-13T03:17:21.879Z,16.10
2018-07-13T03:20:02.745Z,16.10
2018-07-13T03:22:43.523Z,16.10
2018-07-13T03:25:24.217Z,16.10
2018-07-13T03:28:05.268Z,16.10
2018-07-13T03:30:46.362Z,16.10
2018-07-13T03:33:26.750Z,16.20
2018-07-13T03:36:07.126Z,16.20
2018-07-13T03:38:48.024Z,16.30
2018-07-13T03:41:28.419Z,16.40
2018-07-13T03:44:09.223Z,16.50
2018-07-13T03:46:49.752Z,16.60
2018-07-13T03:49:30.563Z,16.60
2018-07-13T03:52:11.370Z,16.60
2018-07-13T03:54:52.046Z,16.60
2018-07-13T03:57:32.913Z,16.70
2018-07-13T04:00:13.586Z,16.70
2018-07-13T04:02:54.475Z,16.80
2018-07-13T04:05:35.025Z,16.80
2018-07-13T04:08:16.035Z,16.90
2018-07-13T04:10:56.649Z,16.90
2018-07-13T04:13:38.016Z,17.00
2018-07-13T04:16:18.565Z,17.10
2018-07-13T04:18:59.386Z,17.20
2018-07-13T04:21:39.692Z,17.20
2018-07-13T04:24:20.440Z,17.20
2018-07-13T04:29:42.462Z,17.30
2018-07-13T04:32:22.989Z,17.30
2018-07-13T04:35:03.799Z,17.30
2018-07-13T04:37:44.980Z,17.30
2018-07-13T04:40:26.253Z,17.40
2018-07-13T04:43:07.089Z,17.40
2018-07-13T04:45:47.622Z,17.40
2018-07-13T04:48:28.496Z,17.40
2018-07-13T04:51:09.057Z,17.40
2018-07-13T04:53:49.448Z,17.50
2018-07-13T04:56:30.360Z,17.60
2018-07-13T04:59:10.708Z,17.60
2018-07-13T05:01:51.167Z,17.60
2018-07-13T05:04:31.901Z,17.60
2018-07-13T05:07:12.504Z,17.60
2018-07-13T05:09:53.331Z,17.60
2018-07-13T05:12:34.833Z,17.60
2018-07-13T05:15:15.621Z,17.70
2018-07-13T05:17:56.418Z,17.60
2018-07-13T05:20:36.945Z,17.70
2018-07-13T05:23:18.019Z,17.80
2018-07-13T05:25:58.866Z,17.80
2018-07-13T05:28:39.681Z,17.80
2018-07-13T05:31:20.056Z,17.80
2018-07-13T05:34:01.860Z,17.90
2018-07-13T05:36:42.661Z,18.00
2018-07-13T05:39:23.094Z,18.00
2018-07-13T05:44:44.533Z,18.30
2018-07-13T05:47:24.922Z,18.40
2018-07-13T05:50:05.866Z,18.40
2018-07-13T05:52:46.333Z,18.60
2018-07-13T05:55:26.687Z,18.80
2018-07-13T05:58:07.256Z,19.00
2018-07-13T06:00:48.938Z,19.10
2018-07-13T06:03:29.440Z,19.40
2018-07-13T06:06:10.011Z,19.60
2018-07-13T06:08:50.760Z,19.90
2018-07-13T06:11:31.663Z,20.30
2018-07-13T06:14:12.488Z,20.40
2018-07-13T06:16:53.022Z,20.60
2018-07-13T06:19:33.444Z,20.60
2018-07-13T06:22:14.116Z,20.60
2018-07-13T06:24:54.612Z,20.40
2018-07-13T06:27:36.247Z,20.60
2018-07-13T06:30:16.746Z,20.40
2018-07-13T06:32:57.676Z,20.10
2018-07-13T06:35:38.782Z,19.90
2018-07-13T06:38:19.325Z,20.10
2018-07-13T06:40:59.964Z,20.30
2018-07-13T06:43:40.305Z,20.50
2018-07-13T06:46:21.097Z,20.80
2018-07-13T06:49:02.286Z,21.00
2018-07-13T06:51:42.761Z,21.30
2018-07-13T06:54:23.291Z,21.40
2018-07-13T06:57:03.617Z,21.40
2018-07-13T06:59:44.383Z,21.30
2018-07-13T07:02:40.124Z,21.60
2018-07-13T07:06:23.387Z,21.70
2018-07-13T07:09:05.501Z,21.70
2018-07-13T07:12:02.994Z,22.00
2018-07-13T07:14:43.735Z,22.60
2018-07-13T07:17:24.871Z,23.00
2018-07-13T07:20:06.151Z,23.30
2018-07-13T07:22:47.596Z,23.10
2018-07-13T07:25:28.255Z,22.80
2018-07-13T07:28:08.900Z,23.10
2018-07-13T07:30:49.814Z,23.30
2018-07-13T07:33:31.859Z,23.50
2018-07-13T07:36:12.420Z,23.50
2018-07-13T07:38:53.284Z,23.20
2018-07-13T07:41:33.797Z,23.10
2018-07-13T07:44:14.576Z,23.20
2018-07-13T07:46:55.063Z,23.20
2018-07-13T07:52:16.233Z,23.90
2018-07-13T07:54:56.760Z,23.90
2018-07-13T07:57:37.951Z,23.90
2018-07-13T08:00:19.376Z,24.10
2018-07-13T08:03:01.578Z,24.30
2018-07-13T08:05:42.264Z,25.00
2018-07-13T08:08:23.096Z,25.90
2018-07-13T08:11:04.512Z,27.40
2018-07-13T08:13:45.750Z,28.90
2018-07-13T08:16:26.280Z,30.20
2018-07-13T08:19:07.159Z,30.70
2018-07-13T08:21:48.330Z,31.40
2018-07-13T08:24:29.274Z,31.60
2018-07-13T08:27:15.488Z,31.50
2018-07-13T08:29:57.457Z,32.30
2018-07-13T08:32:38.017Z,33.00
2018-07-13T08:35:18.858Z,33.40
2018-07-13T08:38:01.381Z,34.10
2018-07-13T08:40:41.990Z,34.50
2018-07-13T08:43:22.539Z,33.10
2018-07-13T08:46:03.177Z,31.40
2018-07-13T08:48:43.593Z,30.10
2018-07-13T08:51:24.172Z,29.00
2018-07-13T08:54:04.863Z,28.60
2018-07-13T08:56:45.358Z,28.50
2018-07-13T08:59:25.923Z,28.20
2018-07-13T09:02:06.525Z,28.10
2018-07-13T09:04:46.994Z,28.00
2018-07-13T09:07:28.473Z,28.10
2018-07-13T09:10:10.910Z,28.80
2018-07-13T09:12:51.515Z,29.40
2018-07-13T09:15:32.232Z,29.80
2018-07-13T09:18:12.846Z,30.40
2018-07-13T09:20:53.519Z,30.90
2018-07-13T09:23:34.361Z,31.60
2018-07-13T09:26:14.792Z,31.20
2018-07-13T09:28:55.599Z,31.60
2018-07-13T09:31:36.729Z,32.50
2018-07-13T09:34:17.254Z,33.00
2018-07-13T09:36:58.196Z,33.30
2018-07-13T09:39:38.854Z,34.20
2018-07-13T09:42:19.486Z,34.10
2018-07-13T09:45:00.089Z,34.90
2018-07-13T09:47:41.164Z,35.30
2018-07-13T09:50:21.557Z,34.80
2018-07-13T09:53:02.118Z,33.90
2018-07-13T09:55:42.650Z,34.20
2018-07-13T09:58:33.211Z,35.20
2018-07-13T10:01:21.450Z,35.30
2018-07-13T10:04:02.358Z,35.80
2018-07-13T10:06:45.801Z,35.30
2018-07-13T10:09:26.181Z,35.30
2018-07-13T10:12:08.176Z,35.50
2018-07-13T10:14:48.802Z,36.10
2018-07-13T10:17:29.208Z,36.00
2018-07-13T10:20:10.084Z,35.50
2018-07-13T10:25:31.817Z,35.60
2018-07-13T10:28:12.642Z,36.20
2018-07-13T10:30:54.230Z,36.10
2018-07-13T10:33:36.774Z,35.20
2018-07-13T10:36:20.564Z,33.40
2018-07-13T10:39:01.340Z,32.90
2018-07-13T10:41:41.755Z,32.90
2018-07-13T10:44:22.456Z,33.60
2018-07-13T10:47:03.010Z,34.90
2018-07-13T10:49:44.042Z,35.30
2018-07-13T10:52:24.448Z,35.20
2018-07-13T10:55:04.846Z,34.30
2018-07-13T10:57:45.761Z,32.60
2018-07-13T11:00:26.275Z,31.30
2018-07-13T11:03:07.229Z,32.50
2018-07-13T11:05:48.177Z,33.70
2018-07-13T11:08:28.625Z,32.90
2018-07-13T11:11:09.793Z,32.00
2018-07-13T11:13:50.786Z,33.10
2018-07-13T11:16:31.499Z,33.30
2018-07-13T11:19:12.071Z,32.90
2018-07-13T11:21:53.198Z,33.90
2018-07-13T11:24:34.687Z,34.10
2018-07-13T11:27:15.626Z,33.60
2018-07-13T11:32:37.206Z,33.30
2018-07-13T11:37:58.268Z,34.10
2018-07-13T11:40:39.037Z,34.50
2018-07-13T11:43:19.949Z,34.70
2018-07-13T11:46:00.281Z,34.00
2018-07-13T11:48:40.739Z,34.60
2018-07-13T11:51:21.747Z,35.30
2018-07-13T11:54:02.849Z,35.20
2018-07-13T11:56:43.401Z,34.70
2018-07-13T11:59:24.267Z,32.30
2018-07-13T12:02:05.175Z,31.90
2018-07-13T12:07:26.456Z,34.80
2018-07-13T12:10:07.368Z,35.20
2018-07-13T12:12:48.325Z,34.20
2018-07-13T12:15:29.201Z,33.90
2018-07-13T12:18:10.688Z,34.50
2018-07-13T12:20:51.364Z,35.00
2018-07-13T12:23:32.320Z,35.50
2018-07-13T12:26:12.692Z,35.90
2018-07-13T12:28:54.023Z,35.90
2018-07-13T12:31:34.793Z,35.20
2018-07-13T12:34:15.872Z,35.30
2018-07-13T12:36:56.885Z,35.80
2018-07-13T12:39:37.765Z,35.90
2018-07-13T12:42:18.808Z,36.00
2018-07-13T12:44:59.705Z,35.10
2018-07-13T12:47:40.144Z,34.90
2018-07-13T12:50:20.716Z,34.20
2018-07-13T12:53:01.400Z,34.10
2018-07-13T12:55:42.865Z,33.50
2018-07-13T12:58:23.508Z,33.50
2018-07-13T13:01:04.271Z,34.00
2018-07-13T13:03:46.965Z,34.10
2018-07-13T13:06:27.783Z,34.60
2018-07-13T13:09:09.376Z,35.20
2018-07-13T13:11:50.902Z,35.60
2018-07-13T13:14:31.675Z,35.50
2018-07-13T13:17:12.501Z,35.60
2018-07-13T13:19:52.987Z,35.40
2018-07-13T13:22:33.554Z,34.20
2018-07-13T13:25:14.745Z,32.80
2018-07-13T13:27:55.948Z,32.10
2018-07-13T13:30:38.014Z,31.20
2018-07-13T13:33:18.824Z,30.60
2018-07-13T13:35:59.411Z,30.30
2018-07-13T13:38:39.893Z,30.40
2018-07-13T13:41:20.321Z,30.60
2018-07-13T13:44:00.720Z,30.60
2018-07-13T13:46:42.220Z,30.70
2018-07-13T13:49:22.812Z,31.40
2018-07-13T13:54:44.068Z,30.70
2018-07-13T13:57:25.261Z,31.10
2018-07-13T14:00:06.049Z,31.90
2018-07-13T14:02:47.273Z,32.80
2018-07-13T14:05:28.138Z,32.60
2018-07-13T14:08:08.731Z,32.70
2018-07-13T14:10:49.851Z,32.70
2018-07-13T14:13:30.742Z,33.10
2018-07-13T14:16:12.832Z,32.90
2018-07-13T14:18:54.045Z,32.80
2018-07-13T14:21:34.869Z,32.10
2018-07-13T14:24:15.951Z,32.10
2018-07-13T14:26:57.031Z,32.00
2018-07-13T14:29:37.568Z,32.30
2018-07-13T14:32:20.687Z,32.30
2018-07-13T14:35:02.368Z,32.20
2018-07-13T14:37:43.418Z,31.90
2018-07-13T14:40:24.226Z,32.00
2018-07-13T14:43:04.936Z,31.90
2018-07-13T14:48:25.952Z,31.70
2018-07-13T14:51:06.496Z,31.50
2018-07-13T14:53:47.626Z,31.30
2018-07-13T14:56:28.546Z,31.10
2018-07-13T14:59:09.777Z,31.10
2018-07-13T15:01:50.393Z,31.00
2018-07-13T15:04:32.744Z,30.50
2018-07-13T15:07:13.681Z,30.20
2018-07-13T15:09:54.727Z,29.80
2018-07-13T15:12:35.560Z,29.80
2018-07-13T15:15:16.204Z,30.00
2018-07-13T15:17:57.383Z,30.00
2018-07-13T15:20:38.396Z,30.20
2018-07-13T15:23:19.221Z,29.90
2018-07-13T15:26:00.261Z,29.60
2018-07-13T15:28:40.879Z,29.40
2018-07-13T15:31:21.421Z,29.50
2018-07-13T15:34:02.426Z,29.70
2018-07-13T15:36:44.632Z,29.80
2018-07-13T15:39:25.499Z,29.60
2018-07-13T15:44:46.759Z,29.20
2018-07-13T15:47:27.582Z,29.00
2018-07-13T15:50:08.445Z,29.00
2018-07-13T15:52:49.362Z,28.80
2018-07-13T15:55:34.192Z,28.80
2018-07-13T15:58:14.701Z,28.80
2018-07-13T16:00:56.458Z,28.80
2018-07-13T16:03:38.134Z,28.60
2018-07-13T16:06:18.865Z,28.70
2018-07-13T16:08:59.459Z,28.70
2018-07-13T16:11:39.868Z,28.70
2018-07-13T16:14:20.513Z,28.60
2018-07-13T16:17:01.872Z,28.50
2018-07-13T16:19:42.253Z,28.30
2018-07-13T16:22:23.270Z,28.20
2018-07-13T16:25:03.702Z,28.20
2018-07-13T16:27:44.960Z,28.10
2018-07-13T16:30:25.865Z,28.00
2018-07-13T16:33:07.721Z,27.80
2018-07-13T16:35:48.605Z,27.60
2018-07-13T16:38:29.563Z,27.60
2018-07-13T16:41:10.609Z,27.50
2018-07-13T16:43:51.316Z,27.40
2018-07-13T16:46:31.796Z,27.20
2018-07-13T16:49:12.474Z,27.10
2018-07-13T16:51:53.039Z,27.00
2018-07-13T16:54:33.599Z,27.00
2018-07-13T16:57:14.390Z,27.00
2018-07-13T16:59:55.105Z,27.10
2018-07-13T17:02:35.668Z,27.10
2018-07-13T17:05:16.499Z,27.10
2018-07-13T17:07:56.885Z,27.10
2018-07-13T17:10:37.657Z,27.10
2018-07-13T17:13:18.139Z,27.10
2018-07-13T17:15:58.837Z,27.00
2018-07-13T17:18:39.649Z,27.00
2018-07-13T17:21:20.170Z,27.00
2018-07-13T17:24:01.048Z,26.90
2018-07-13T17:26:42.315Z,26.80
2018-07-13T17:29:23.207Z,26.70
2018-07-13T17:32:04.247Z,26.60
2018-07-13T17:34:44.770Z,26.70
2018-07-13T17:37:26.050Z,26.60
2018-07-13T17:40:12.009Z,26.40
2018-07-13T17:42:53.332Z,26.30
2018-07-13T17:45:33.926Z,26.20
2018-07-13T17:48:14.632Z,26.20
2018-07-13T17:50:55.525Z,26.20
2018-07-13T17:53:37.005Z,26.20
2018-07-13T17:56:18.109Z,26.10
2018-07-13T17:58:59.043Z,26.00
2018-07-13T18:01:40.785Z,25.90
2018-07-13T18:04:21.589Z,25.70
2018-07-13T18:07:02.958Z,25.60
2018-07-13T18:09:43.784Z,25.50
2018-07-13T18:12:24.626Z,25.40
2018-07-13T18:15:05.788Z,25.20
2018-07-13T18:17:46.606Z,25.10
2018-07-13T18:20:27.354Z,25.10
2018-07-13T18:23:08.849Z,25.00
2018-07-13T18:25:49.352Z,24.80
2018-07-13T18:28:30.138Z,24.70
2018-07-13T18:31:11.162Z,24.60
2018-07-13T18:33:51.871Z,24.60
2018-07-13T18:36:32.672Z,24.50
2018-07-13T18:39:14.020Z,24.40
2018-07-13T18:41:54.941Z,24.30
2018-07-13T18:44:37.246Z,24.20
2018-07-13T18:47:17.762Z,24.10
2018-07-13T18:49:58.278Z,24.00
2018-07-13T18:52:38.963Z,24.00
2018-07-13T18:55:19.437Z,23.80
2018-07-13T18:58:00.304Z,23.70
2018-07-13T19:00:41.301Z,23.70
2018-07-13T19:03:21.868Z,23.60
2018-07-13T19:06:02.550Z,23.60
2018-07-13T19:08:43.093Z,23.40
2018-07-13T19:11:24.150Z,23.40
2018-07-13T19:14:06.410Z,23.30
2018-07-13T19:16:47.208Z,23.20
2018-07-13T19:19:28.011Z,23.20
2018-07-13T19:22:08.893Z,23.10
2018-07-13T19:24:49.345Z,23.00
2018-07-13T19:27:30.381Z,22.90
2018-07-13T19:30:11.394Z,22.80
2018-07-13T19:32:53.622Z,22.60
2018-07-13T19:35:34.737Z,22.50
2018-07-13T19:38:15.488Z,22.50
2018-07-13T19:40:56.249Z,22.40
2018-07-13T19:43:37.014Z,22.30
2018-07-13T19:46:17.940Z,22.20
2018-07-13T19:48:58.518Z,22.10
2018-07-13T19:51:39.397Z,22.10
2018-07-13T19:54:20.296Z,22.10
2018-07-13T19:57:01.084Z,22.00
2018-07-13T19:59:46.608Z,21.90
2018-07-13T20:02:27.148Z,21.80
2018-07-13T20:05:08.238Z,21.80
2018-07-13T20:07:49.314Z,21.70
2018-07-13T20:10:30.202Z,21.60
2018-07-13T20:13:11.199Z,21.60
2018-07-13T20:15:52.546Z,21.60
2018-07-13T20:21:13.445Z,21.50
2018-07-13T20:23:54.563Z,21.40
2018-07-13T20:26:35.851Z,21.30
2018-07-13T20:29:16.838Z,21.30
2018-07-13T20:31:57.546Z,21.20
2018-07-13T20:34:38.665Z,21.20
2018-07-13T20:37:19.622Z,21.10
2018-07-13T20:40:00.129Z,21.00
2018-07-13T20:42:40.704Z,21.00
2018-07-13T20:45:21.597Z,21.00
2018-07-13T20:48:02.348Z,20.90
2018-07-13T20:50:43.468Z,20.90
2018-07-13T20:53:24.324Z,20.90
2018-07-13T20:56:06.019Z,20.90
2018-07-13T21:01:27.498Z,21.00
2018-07-13T21:04:08.616Z,21.10
2018-07-13T21:06:49.365Z,21.20
2018-07-13T21:09:29.900Z,21.20
2018-07-13T21:12:10.866Z,21.30
2018-07-13T21:14:51.451Z,21.30
2018-07-13T21:17:32.281Z,21.30
2018-07-13T21:20:14.139Z,21.30
2018-07-13T21:22:55.245Z,21.20
2018-07-13T21:25:35.995Z,21.20
2018-07-13T21:28:16.889Z,21.10
2018-07-13T21:30:57.899Z,21.10
2018-07-13T21:33:38.940Z,21.10
2018-07-13T21:36:19.402Z,21.10
2018-07-13T21:39:00.055Z,21.10
2018-07-13T21:41:41.021Z,21.00
2018-07-13T21:44:21.936Z,21.00
2018-07-13T21:47:02.625Z,21.00
2018-07-13T21:49:43.019Z,20.90
2018-07-13T21:52:23.602Z,20.80
2018-07-13T21:55:04.363Z,20.70
2018-07-13T21:57:45.049Z,20.60
2018-07-13T22:00:25.426Z,20.50
2018-07-13T22:05:47.435Z,20.40
2018-07-13T22:08:28.245Z,20.30
2018-07-13T22:11:08.932Z,20.20
2018-07-13T22:13:50.293Z,20.10
2018-07-13T22:16:31.103Z,20.10
2018-07-13T22:19:12.010Z,20.00
2018-07-13T22:21:52.424Z,20.00
2018-07-13T22:24:33.196Z,19.90
2018-07-13T22:27:14.063Z,19.90
2018-07-13T22:29:54.874Z,19.90
2018-07-13T22:32:36.158Z,19.80
2018-07-13T22:35:17.081Z,19.70
2018-07-13T22:37:57.623Z,19.60
2018-07-13T22:40:38.471Z,19.60
2018-07-13T22:43:19.202Z,19.50
2018-07-13T22:45:59.980Z,19.60
2018-07-13T22:48:40.826Z,18.60
2018-07-13T22:51:22.558Z,19.40
2018-07-13T22:54:03.108Z,19.30
2018-07-13T22:56:44.153Z,19.20
2018-07-13T22:59:25.317Z,19.20
2018-07-13T23:02:05.877Z,19.10
2018-07-13T23:04:46.477Z,19.00
2018-07-13T23:07:27.000Z,19.00
2018-07-13T23:10:08.055Z,18.90
2018-07-13T23:12:49.216Z,18.90
2018-07-13T23:15:30.401Z,18.90
2018-07-13T23:18:12.505Z,18.80
2018-07-13T23:20:53.710Z,18.80
2018-07-13T23:23:34.545Z,18.80
2018-07-13T23:26:15.475Z,18.80
2018-07-13T23:28:56.339Z,18.80
2018-07-13T23:31:37.160Z,18.70
2018-07-13T23:34:18.003Z,18.60
2018-07-13T23:36:59.212Z,18.50
2018-07-13T23:39:39.629Z,18.50
2018-07-13T23:42:20.693Z,18.50
2018-07-13T23:45:01.221Z,18.50
2018-07-13T23:47:42.193Z,18.40
2018-07-13T23:50:22.908Z,18.40
2018-07-13T23:53:04.005Z,18.50
2018-07-13T23:55:44.601Z,18.50
2018-07-13T23:58:25.482Z,18.50
